createdAt,value
2018-04-26T00:00:11.315Z,72.31
2018-04-26T00:01:11.306Z,71.83
2018-04-26T00:02:11.300Z,71.36
2018-04-26T00:03:11.298Z,73.11
2018-04-26T00:04:11.288Z,71.83
2018-04-26T00:05:11.278Z,71.11
2018-04-26T00:06:11.271Z,70.97
2018-04-26T00:07:11.264Z,71.26
2018-04-26T00:08:11.261Z,71.55
2018-04-26T00:09:11.251Z,72.02
2018-04-26T00:10:11.244Z,72.16
2018-04-26T00:11:11.235Z,71.97
2018-04-26T00:12:11.228Z,71.97
2018-04-26T00:13:11.220Z,72.41
2018-04-26T00:14:11.214Z,73.40
2018-04-26T00:15:11.204Z,72.63
2018-04-26T00:16:11.200Z,72.83
2018-04-26T00:17:11.189Z,73.79
2018-04-26T00:18:11.189Z,72.25
2018-04-26T00:19:11.176Z,72.34
2018-04-26T00:20:11.170Z,71.68
2018-04-26T00:21:11.163Z,71.30
2018-04-26T00:22:11.156Z,71.68
2018-04-26T00:23:11.148Z,71.01
2018-04-26T00:24:11.140Z,71.20
2018-04-26T00:25:11.132Z,71.68
2018-04-26T00:26:11.129Z,72.83
2018-04-26T00:27:11.118Z,71.20
2018-04-26T00:28:11.115Z,71.39
2018-04-26T00:29:11.104Z,71.87
2018-04-26T00:30:11.098Z,72.25
2018-04-26T00:31:11.090Z,71.58
2018-04-26T00:32:11.081Z,72.34
2018-04-26T00:33:11.075Z,71.68
2018-04-26T00:34:11.065Z,72.25
2018-04-26T00:35:11.059Z,72.41
2018-04-26T00:36:11.055Z,72.34
2018-04-26T00:37:11.048Z,72.73
2018-04-26T00:38:11.038Z,72.16
2018-04-26T00:39:11.028Z,72.25
2018-04-26T00:40:11.024Z,71.20
2018-04-26T00:41:11.043Z,71.68
2018-04-26T00:42:11.010Z,72.16
2018-04-26T00:43:11.000Z,71.87
2018-04-26T00:44:10.993Z,71.68
2018-04-26T00:45:10.985Z,71.87
2018-04-26T00:46:10.979Z,69.86
2018-04-26T00:47:10.971Z,70.72
2018-04-26T00:48:10.966Z,70.34
2018-04-26T00:49:10.957Z,70.24
2018-04-26T00:50:10.949Z,69.95
2018-04-26T00:51:10.944Z,70.24
2018-04-26T00:52:10.933Z,69.29
2018-04-26T00:53:10.932Z,69.38
2018-04-26T00:54:10.922Z,69.57
2018-04-26T00:55:10.914Z,70.34
2018-04-26T00:56:10.906Z,68.80
2018-04-26T00:57:10.901Z,68.65
2018-04-26T00:58:10.893Z,68.33
2018-04-26T00:59:10.943Z,67.88
2018-04-26T01:00:10.885Z,69.29
2018-04-26T01:01:10.871Z,68.65
2018-04-26T01:02:10.864Z,70.37
2018-04-26T01:03:10.859Z,69.23
2018-04-26T01:04:10.851Z,69.19
2018-04-26T01:05:10.843Z,69.29
2018-04-26T01:06:10.835Z,69.19
2018-04-26T01:07:10.827Z,69.00
2018-04-26T01:08:10.821Z,68.33
2018-04-26T01:09:10.814Z,68.80
2018-04-26T01:10:10.807Z,68.52
2018-04-26T01:11:10.798Z,69.76
2018-04-26T01:12:10.792Z,69.60
2018-04-26T01:13:10.787Z,69.38
2018-04-26T01:14:10.781Z,68.94
2018-04-26T01:15:10.770Z,69.23
2018-04-26T01:16:10.764Z,67.88
2018-04-26T01:17:10.755Z,67.50
2018-04-26T01:18:10.749Z,68.55
2018-04-26T01:19:10.742Z,68.17
2018-04-26T01:20:10.829Z,68.07
2018-04-26T01:21:10.725Z,68.36
2018-04-26T01:22:10.720Z,68.36
2018-04-26T01:23:10.716Z,68.36
2018-04-26T01:24:10.704Z,68.74
2018-04-26T01:25:10.705Z,69.23
2018-04-26T01:26:10.691Z,69.32
2018-04-26T01:27:10.684Z,69.42
2018-04-26T01:28:10.679Z,69.32
2018-04-26T01:29:10.671Z,68.55
2018-04-26T01:30:10.662Z,68.55
2018-04-26T01:31:10.658Z,68.65
2018-04-26T01:32:10.648Z,68.94
2018-04-26T01:33:10.643Z,68.36
2018-04-26T01:34:10.634Z,68.52
2018-04-26T01:35:10.635Z,68.65
2018-04-26T01:36:10.620Z,68.84
2018-04-26T01:37:10.613Z,68.65
2018-04-26T01:38:10.606Z,68.42
2018-04-26T01:39:10.599Z,68.23
2018-04-26T01:40:10.591Z,68.65
2018-04-26T01:41:10.585Z,68.74
2018-04-26T01:42:10.579Z,68.65
2018-04-26T01:43:10.574Z,68.65
2018-04-26T01:44:10.562Z,68.84
2018-04-26T01:45:10.556Z,68.74
2018-04-26T01:46:10.550Z,68.55
2018-04-26T01:47:10.543Z,68.94
2018-04-26T01:48:10.536Z,68.07
2018-04-26T01:49:10.528Z,68.17
2018-04-26T01:50:10.523Z,67.88
2018-04-26T01:51:10.516Z,67.41
2018-04-26T01:52:10.507Z,67.50
2018-04-26T01:53:10.501Z,67.02
2018-04-26T01:54:10.493Z,67.11
2018-04-26T01:55:10.489Z,68.07
2018-04-26T01:56:10.481Z,67.50
2018-04-26T01:57:10.473Z,67.02
2018-04-26T01:58:10.465Z,67.02
2018-04-26T01:59:10.458Z,67.98
2018-04-26T02:00:10.452Z,67.02
2018-04-26T02:01:10.444Z,66.83
2018-04-26T02:02:10.444Z,66.74
2018-04-26T02:03:10.431Z,66.83
2018-04-26T02:04:10.423Z,66.35
2018-04-26T02:05:10.416Z,67.11
2018-04-26T02:06:10.412Z,66.48
2018-04-26T02:07:10.404Z,66.09
2018-04-26T02:08:10.400Z,68.78
2018-04-26T02:09:10.389Z,65.81
2018-04-26T02:10:10.385Z,66.29
2018-04-26T02:11:10.378Z,65.14
2018-04-26T02:12:10.372Z,66.00
2018-04-26T02:13:10.364Z,67.25
2018-04-26T02:14:10.384Z,66.96
2018-04-26T02:15:10.350Z,65.81
2018-04-26T02:16:10.341Z,66.19
2018-04-26T02:17:10.332Z,67.82
2018-04-26T02:18:10.327Z,67.82
2018-04-26T02:19:10.318Z,66.38
2018-04-26T02:20:10.313Z,66.58
2018-04-26T02:21:10.305Z,66.19
2018-04-26T02:22:10.296Z,66.86
2018-04-26T02:23:10.291Z,66.96
2018-04-26T02:24:10.288Z,67.05
2018-04-26T02:25:10.277Z,66.86
2018-04-26T02:26:10.273Z,67.34
2018-04-26T02:27:10.262Z,67.82
2018-04-26T02:28:10.255Z,66.45
2018-04-26T02:29:10.249Z,68.21
2018-04-26T02:30:10.241Z,67.11
2018-04-26T02:31:10.234Z,67.11
2018-04-26T02:32:10.225Z,67.11
2018-04-26T02:33:10.217Z,67.21
2018-04-26T02:34:10.210Z,68.55
2018-04-26T02:35:10.203Z,68.36
2018-04-26T02:36:10.195Z,67.79
2018-04-26T02:37:10.186Z,67.98
2018-04-26T02:38:10.179Z,68.94
2018-04-26T02:39:10.185Z,69.51
2018-04-26T02:40:10.168Z,69.03
2018-04-26T02:41:10.157Z,67.98
2018-04-26T02:42:10.148Z,68.07
2018-04-26T02:43:10.143Z,68.46
2018-04-26T02:44:10.134Z,67.60
2018-04-26T02:45:10.124Z,66.93
2018-04-26T02:46:10.120Z,69.42
2018-04-26T02:47:10.117Z,67.60
2018-04-26T02:48:10.105Z,66.83
2018-04-26T02:49:10.094Z,66.41
2018-04-26T02:50:10.091Z,67.37
2018-04-26T02:51:10.083Z,67.56
2018-04-26T02:52:10.073Z,69.95
2018-04-26T02:53:10.065Z,67.47
2018-04-26T02:54:10.057Z,68.23
2018-04-26T02:55:10.049Z,67.56
2018-04-26T02:56:10.041Z,66.61
2018-04-26T02:57:10.036Z,66.89
2018-04-26T02:58:10.030Z,67.47
2018-04-26T02:59:10.018Z,66.70
2018-04-26T03:00:10.012Z,66.51
2018-04-26T03:01:10.003Z,68.23
2018-04-26T03:02:09.996Z,68.13
2018-04-26T03:03:09.987Z,68.33
2018-04-26T03:04:09.980Z,66.89
2018-04-26T03:05:09.974Z,65.17
2018-04-26T03:06:09.965Z,65.36
2018-04-26T03:07:09.963Z,65.74
2018-04-26T03:08:10.039Z,65.55
2018-04-26T03:09:09.941Z,67.63
2018-04-26T03:10:09.934Z,67.27
2018-04-26T03:11:09.933Z,66.09
2018-04-26T03:12:09.920Z,66.96
2018-04-26T03:13:09.910Z,67.82
2018-04-26T03:14:09.906Z,66.76
2018-04-26T03:15:09.899Z,66.67
2018-04-26T03:16:09.887Z,66.96
2018-04-26T03:17:09.877Z,66.57
2018-04-26T03:18:09.874Z,66.96
2018-04-26T03:19:09.868Z,67.43
2018-04-26T03:20:09.854Z,67.24
2018-04-26T03:21:09.849Z,66.96
2018-04-26T03:22:09.841Z,67.91
2018-04-26T03:23:09.834Z,68.49
2018-04-26T03:24:09.827Z,67.63
2018-04-26T03:25:09.819Z,67.05
2018-04-26T03:26:09.809Z,66.76
2018-04-26T03:27:09.801Z,68.39
2018-04-26T03:28:09.794Z,67.82
2018-04-26T03:29:09.785Z,67.53
2018-04-26T03:30:09.782Z,65.71
2018-04-26T03:31:09.885Z,65.71
2018-04-26T03:32:09.762Z,65.52
2018-04-26T03:33:09.754Z,65.61
2018-04-26T03:34:09.746Z,66.19
2018-04-26T03:35:09.738Z,66.57
2018-04-26T03:36:09.730Z,66.96
2018-04-26T03:37:09.725Z,65.90
2018-04-26T03:38:09.716Z,67.49
2018-04-26T03:39:09.705Z,67.34
2018-04-26T03:40:09.697Z,68.49
2018-04-26T03:41:09.689Z,67.21
2018-04-26T03:42:09.681Z,66.44
2018-04-26T03:43:09.675Z,67.40
2018-04-26T03:44:09.663Z,68.84
2018-04-26T03:45:09.655Z,69.41
2018-04-26T03:46:09.649Z,68.26
2018-04-26T03:47:09.642Z,67.40
2018-04-26T03:48:09.631Z,68.16
2018-04-26T03:49:09.626Z,68.16
2018-04-26T03:50:09.615Z,67.49
2018-04-26T03:51:09.612Z,67.88
2018-04-26T03:52:09.599Z,68.35
2018-04-26T03:53:09.589Z,69.50
2018-04-26T03:54:09.583Z,68.74
2018-04-26T03:55:09.574Z,68.07
2018-04-26T03:56:09.566Z,68.07
2018-04-26T03:57:09.558Z,66.76
2018-04-26T03:58:09.554Z,68.07
2018-04-26T03:59:09.544Z,69.73
2018-04-26T04:00:09.534Z,67.88
2018-04-26T04:01:09.525Z,69.44
2018-04-26T04:02:09.517Z,67.21
2018-04-26T04:03:09.506Z,68.07
2018-04-26T04:04:09.498Z,68.74
2018-04-26T04:05:09.491Z,68.26
2018-04-26T04:06:09.483Z,70.30
2018-04-26T04:07:09.475Z,68.10
2018-04-26T04:08:09.467Z,70.01
2018-04-26T04:09:09.456Z,66.92
2018-04-26T04:10:09.450Z,68.01
2018-04-26T04:11:09.440Z,67.72
2018-04-26T04:12:09.432Z,68.58
2018-04-26T04:13:09.422Z,68.96
2018-04-26T04:14:09.413Z,70.21
2018-04-26T04:15:09.405Z,67.34
2018-04-26T04:16:09.399Z,67.43
2018-04-26T04:17:09.386Z,65.81
2018-04-26T04:18:09.381Z,65.61
2018-04-26T04:19:09.370Z,67.02
2018-04-26T04:20:09.361Z,67.49
2018-04-26T04:21:09.353Z,68.39
2018-04-26T04:22:09.346Z,67.02
2018-04-26T04:23:09.335Z,66.73
2018-04-26T04:24:09.325Z,66.44
2018-04-26T04:25:09.318Z,68.07
2018-04-26T04:26:09.306Z,68.07
2018-04-26T04:27:09.301Z,67.97
2018-04-26T04:28:09.293Z,68.26
2018-04-26T04:29:09.287Z,68.55
2018-04-26T04:30:09.275Z,68.74
2018-04-26T04:31:09.266Z,66.76
2018-04-26T04:32:09.256Z,67.05
2018-04-26T04:33:09.251Z,65.61
2018-04-26T04:34:09.246Z,67.53
2018-04-26T04:35:09.232Z,65.33
2018-04-26T04:36:09.225Z,65.61
2018-04-26T04:37:09.215Z,68.07
2018-04-26T04:38:09.205Z,66.83
2018-04-26T04:39:09.202Z,68.29
2018-04-26T04:40:09.189Z,66.16
2018-04-26T04:41:09.180Z,66.92
2018-04-26T04:42:09.176Z,67.34
2018-04-26T04:43:09.162Z,65.01
2018-04-26T04:44:09.168Z,65.97
2018-04-26T04:45:09.260Z,65.58
2018-04-26T04:46:09.139Z,65.87
2018-04-26T04:47:09.129Z,67.30
2018-04-26T04:48:09.119Z,67.69
2018-04-26T04:49:09.114Z,68.84
2018-04-26T04:50:09.103Z,70.17
2018-04-26T04:51:09.171Z,69.60
2018-04-26T04:52:09.087Z,67.30
2018-04-26T04:53:09.076Z,65.48
2018-04-26T04:54:09.067Z,65.97
2018-04-26T04:55:09.059Z,66.06
2018-04-26T04:56:09.050Z,66.92
2018-04-26T04:57:09.041Z,65.87
2018-04-26T04:58:09.033Z,68.26
2018-04-26T04:59:09.027Z,65.97
2018-04-26T05:00:09.019Z,66.79
2018-04-26T05:01:09.005Z,68.61
2018-04-26T05:02:09.076Z,68.90
2018-04-26T05:03:08.996Z,66.79
2018-04-26T05:04:08.980Z,68.23
2018-04-26T05:05:08.970Z,70.04
2018-04-26T05:06:08.962Z,68.13
2018-04-26T05:07:08.953Z,70.52
2018-04-26T05:08:08.947Z,71.22
2018-04-26T05:09:08.934Z,68.64
2018-04-26T05:10:08.928Z,68.45
2018-04-26T05:11:08.920Z,68.26
2018-04-26T05:12:08.914Z,68.35
2018-04-26T05:13:08.901Z,69.47
2018-04-26T05:14:08.891Z,68.32
2018-04-26T05:15:08.884Z,68.41
2018-04-26T05:16:08.876Z,68.61
2018-04-26T05:17:08.868Z,68.32
2018-04-26T05:18:08.855Z,69.76
2018-04-26T05:19:08.849Z,70.90
2018-04-26T05:20:08.839Z,69.47
2018-04-26T05:21:08.830Z,69.76
2018-04-26T05:22:08.819Z,69.09
2018-04-26T05:23:08.812Z,70.14
2018-04-26T05:24:08.801Z,71.03
2018-04-26T05:25:08.794Z,69.70
2018-04-26T05:26:08.782Z,69.70
2018-04-26T05:27:08.774Z,69.70
2018-04-26T05:28:08.765Z,69.60
2018-04-26T05:29:08.756Z,69.02
2018-04-26T05:30:08.813Z,68.16
2018-04-26T05:31:08.738Z,68.64
2018-04-26T05:32:08.728Z,67.11
2018-04-26T05:33:08.721Z,66.92
2018-04-26T05:34:08.712Z,67.91
2018-04-26T05:35:08.705Z,68.10
2018-04-26T05:36:08.697Z,68.77
2018-04-26T05:37:08.689Z,66.96
2018-04-26T05:38:08.675Z,65.90
2018-04-26T05:39:08.669Z,66.25
2018-04-26T05:40:08.663Z,66.63
2018-04-26T05:41:08.653Z,68.45
2018-04-26T05:42:08.646Z,69.54
2018-04-26T05:43:08.636Z,68.20
2018-04-26T05:44:08.624Z,66.19
2018-04-26T05:45:08.621Z,66.57
2018-04-26T05:46:08.607Z,66.86
2018-04-26T05:47:08.600Z,66.19
2018-04-26T05:48:08.593Z,68.84
2018-04-26T05:49:08.581Z,67.91
2018-04-26T05:50:08.572Z,66.16
2018-04-26T05:51:08.565Z,68.20
2018-04-26T05:52:08.558Z,68.01
2018-04-26T05:53:08.547Z,66.86
2018-04-26T05:54:08.543Z,66.38
2018-04-26T05:55:08.536Z,66.00
2018-04-26T05:56:08.527Z,65.90
2018-04-26T05:57:08.513Z,66.38
2018-04-26T05:58:08.505Z,65.26
2018-04-26T05:59:08.498Z,65.04
2018-04-26T06:00:08.489Z,64.18
2018-04-26T06:01:08.479Z,63.99
2018-04-26T06:02:08.472Z,65.23
2018-04-26T06:03:08.466Z,65.14
2018-04-26T06:04:08.456Z,66.00
2018-04-26T06:05:08.448Z,65.71
2018-04-26T06:06:08.441Z,65.42
2018-04-26T06:07:08.429Z,64.66
2018-04-26T06:08:08.429Z,63.99
2018-04-26T06:09:08.412Z,64.37
2018-04-26T06:10:08.405Z,63.89
2018-04-26T06:11:08.394Z,64.28
2018-04-26T06:12:08.389Z,64.28
2018-04-26T06:13:08.381Z,64.85
2018-04-26T06:14:08.372Z,66.00
2018-04-26T06:15:08.365Z,68.87
2018-04-26T06:16:08.355Z,65.23
2018-04-26T06:17:08.371Z,65.61
2018-04-26T06:18:08.338Z,63.93
2018-04-26T06:19:08.330Z,64.50
2018-04-26T06:20:08.322Z,62.87
2018-04-26T06:21:08.317Z,63.16
2018-04-26T06:22:08.313Z,63.93
2018-04-26T06:23:08.309Z,63.16
2018-04-26T06:24:08.293Z,63.64
2018-04-26T06:25:08.325Z,64.22
2018-04-26T06:26:08.275Z,62.97
2018-04-26T06:27:08.268Z,63.16
2018-04-26T06:28:08.257Z,62.33
2018-04-26T06:29:08.252Z,62.11
2018-04-26T06:30:08.245Z,62.49
2018-04-26T06:31:08.260Z,61.91
2018-04-26T06:32:08.228Z,62.20
2018-04-26T06:33:08.222Z,62.01
2018-04-26T06:34:08.211Z,63.93
2018-04-26T06:35:08.203Z,63.76
2018-04-26T06:36:08.195Z,62.81
2018-04-26T06:37:08.187Z,63.96
2018-04-26T06:38:08.179Z,63.10
2018-04-26T06:39:08.174Z,62.71
2018-04-26T06:40:08.164Z,62.71
2018-04-26T06:41:08.155Z,62.43
2018-04-26T06:42:08.149Z,61.85
2018-04-26T06:43:08.142Z,60.70
2018-04-26T06:44:08.132Z,60.61
2018-04-26T06:45:08.124Z,60.03
2018-04-26T06:46:08.120Z,60.51
2018-04-26T06:47:08.111Z,61.57
2018-04-26T06:48:08.102Z,61.08
2018-04-26T06:49:08.093Z,62.52
2018-04-26T06:50:08.090Z,60.32
2018-04-26T06:51:08.081Z,60.51
2018-04-26T06:52:08.072Z,59.65
2018-04-26T06:53:08.065Z,59.75
2018-04-26T06:54:08.058Z,60.32
2018-04-26T06:55:08.058Z,60.29
2018-04-26T06:56:08.045Z,62.49
2018-04-26T06:57:08.043Z,61.08
2018-04-26T06:58:08.030Z,60.32
2018-04-26T06:59:08.021Z,59.27
2018-04-26T07:00:08.010Z,60.32
2018-04-26T07:01:08.004Z,59.45
2018-04-26T07:02:07.998Z,59.94
2018-04-26T07:03:07.990Z,60.32
2018-04-26T07:04:07.983Z,58.53
2018-04-26T07:05:07.976Z,57.26
2018-04-26T07:06:07.967Z,58.22
2018-04-26T07:07:07.963Z,59.17
2018-04-26T07:08:07.952Z,60.03
2018-04-26T07:09:07.947Z,58.79
2018-04-26T07:10:07.939Z,59.55
2018-04-26T07:11:07.932Z,57.73
2018-04-26T07:12:07.989Z,59.36
2018-04-26T07:13:07.915Z,59.17
2018-04-26T07:14:07.908Z,58.02
2018-04-26T07:15:07.903Z,57.54
2018-04-26T07:16:07.892Z,58.69
2018-04-26T07:17:07.883Z,57.83
2018-04-26T07:18:07.882Z,58.59
2018-04-26T07:19:07.877Z,57.16
2018-04-26T07:20:07.863Z,58.79
2018-04-26T07:21:07.858Z,58.22
2018-04-26T07:22:07.848Z,58.15
2018-04-26T07:23:07.844Z,58.79
2018-04-26T07:24:07.832Z,59.17
2018-04-26T07:25:07.831Z,60.06
2018-04-26T07:26:07.823Z,60.93
2018-04-26T07:27:07.812Z,58.24
2018-04-26T07:28:07.802Z,55.08
2018-04-26T07:29:07.799Z,57.09
2018-04-26T07:30:07.791Z,56.23
2018-04-26T07:31:07.787Z,55.65
2018-04-26T07:32:07.828Z,56.32
2018-04-26T07:33:07.768Z,55.94
2018-04-26T07:34:07.763Z,55.94
2018-04-26T07:35:07.763Z,55.94
2018-04-26T07:36:07.749Z,56.81
2018-04-26T07:37:07.744Z,56.23
2018-04-26T07:38:07.737Z,58.91
2018-04-26T07:39:07.730Z,56.81
2018-04-26T07:40:07.723Z,55.65
2018-04-26T07:41:07.714Z,56.61
2018-04-26T07:42:07.705Z,57.41
2018-04-26T07:43:07.700Z,55.11
2018-04-26T07:44:07.692Z,54.91
2018-04-26T07:45:07.685Z,54.72
2018-04-26T07:46:07.681Z,53.58
2018-04-26T07:47:07.674Z,53.96
2018-04-26T07:48:07.663Z,53.83
2018-04-26T07:49:07.661Z,55.46
2018-04-26T07:50:07.658Z,55.94
2018-04-26T07:51:07.644Z,56.13
2018-04-26T07:52:07.639Z,53.45
2018-04-26T07:53:07.665Z,53.83
2018-04-26T07:54:07.622Z,53.64
2018-04-26T07:55:07.622Z,54.03
2018-04-26T07:56:07.608Z,54.79
2018-04-26T07:57:07.602Z,54.60
2018-04-26T07:58:07.597Z,53.74
2018-04-26T07:59:07.593Z,52.59
2018-04-26T08:00:07.580Z,53.07
2018-04-26T08:01:07.575Z,53.36
2018-04-26T08:02:07.568Z,54.32
2018-04-26T08:03:07.563Z,53.83
2018-04-26T08:04:07.564Z,52.30
2018-04-26T08:05:07.547Z,53.42
2018-04-26T08:06:07.540Z,54.48
2018-04-26T08:07:07.534Z,54.00
2018-04-26T08:08:07.527Z,54.86
2018-04-26T08:09:07.521Z,55.12
2018-04-26T08:10:07.514Z,55.86
2018-04-26T08:11:07.504Z,57.48
2018-04-26T08:12:07.497Z,56.82
2018-04-26T08:13:07.490Z,57.87
2018-04-26T08:14:07.484Z,58.73
2018-04-26T08:15:07.480Z,58.44
2018-04-26T08:16:07.673Z,57.77
2018-04-26T08:17:07.459Z,58.15
2018-04-26T08:18:07.453Z,58.34
2018-04-26T08:19:07.446Z,58.83
2018-04-26T08:20:07.439Z,58.54
2018-04-26T08:21:07.429Z,59.43
2018-04-26T08:22:07.423Z,58.86
2018-04-26T08:23:07.414Z,57.13
2018-04-26T08:24:07.409Z,56.94
2018-04-26T08:25:07.477Z,58.66
2018-04-26T08:26:07.391Z,59.43
2018-04-26T08:27:07.385Z,58.86
2018-04-26T08:28:07.375Z,57.90
2018-04-26T08:29:07.374Z,59.52
2018-04-26T08:30:07.362Z,60.29
2018-04-26T08:31:07.356Z,59.84
2018-04-26T08:32:07.345Z,56.49
2018-04-26T08:33:07.338Z,56.59
2018-04-26T08:34:07.328Z,58.22
2018-04-26T08:35:07.324Z,56.49
2018-04-26T08:36:07.315Z,56.65
2018-04-26T08:37:07.308Z,59.17
2018-04-26T08:38:07.300Z,57.26
2018-04-26T08:39:07.296Z,58.12
2018-04-26T08:40:07.289Z,56.39
2018-04-26T08:41:07.276Z,56.68
2018-04-26T08:42:07.271Z,58.88
2018-04-26T08:43:07.263Z,57.64
2018-04-26T08:44:07.265Z,57.64
2018-04-26T08:45:07.246Z,56.77
2018-04-26T08:46:07.239Z,57.54
2018-04-26T08:47:07.233Z,58.81
2018-04-26T08:48:07.225Z,58.62
2018-04-26T08:49:07.221Z,58.24
2018-04-26T08:50:07.210Z,56.99
2018-04-26T08:51:07.202Z,58.05
2018-04-26T08:52:07.198Z,57.19
2018-04-26T08:53:07.188Z,54.67
2018-04-26T08:54:07.181Z,56.04
2018-04-26T08:55:07.177Z,56.59
2018-04-26T08:56:07.168Z,55.63
2018-04-26T08:57:07.159Z,55.73
2018-04-26T08:58:07.154Z,56.97
2018-04-26T08:59:07.149Z,55.63
2018-04-26T09:00:07.137Z,56.30
2018-04-26T09:01:07.130Z,58.22
2018-04-26T09:02:07.123Z,58.15
2018-04-26T09:03:07.117Z,56.90
2018-04-26T09:04:07.109Z,55.24
2018-04-26T09:05:07.103Z,57.28
2018-04-26T09:06:07.094Z,55.65
2018-04-26T09:07:07.091Z,55.36
2018-04-26T09:08:07.080Z,54.70
2018-04-26T09:09:07.078Z,53.93
2018-04-26T09:10:07.065Z,54.12
2018-04-26T09:11:07.059Z,56.07
2018-04-26T09:12:07.053Z,53.67
2018-04-26T09:13:07.045Z,54.34
2018-04-26T09:14:07.046Z,52.81
2018-04-26T09:15:07.032Z,53.00
2018-04-26T09:16:07.023Z,52.04
2018-04-26T09:17:07.016Z,54.63
2018-04-26T09:18:07.014Z,53.67
2018-04-26T09:19:07.006Z,54.05
2018-04-26T09:20:06.997Z,53.99
2018-04-26T09:21:06.993Z,52.07
2018-04-26T09:22:06.984Z,53.70
2018-04-26T09:23:06.976Z,52.81
2018-04-26T09:24:06.971Z,52.91
2018-04-26T09:25:06.965Z,53.48
2018-04-26T09:26:06.960Z,53.36
2018-04-26T09:27:06.951Z,54.60
2018-04-26T09:28:06.946Z,55.94
2018-04-26T09:29:06.937Z,56.52
2018-04-26T09:30:07.020Z,56.04
2018-04-26T09:31:06.924Z,55.78
2018-04-26T09:32:06.920Z,53.19
2018-04-26T09:33:06.909Z,54.41
2018-04-26T09:34:06.905Z,56.32
2018-04-26T09:35:06.897Z,55.27
2018-04-26T09:36:06.892Z,55.68
2018-04-26T09:37:06.885Z,53.58
2018-04-26T09:38:06.881Z,54.79
2018-04-26T09:39:06.872Z,55.27
2018-04-26T09:40:06.872Z,56.54
2018-04-26T09:41:06.859Z,55.46
2018-04-26T09:42:06.851Z,53.74
2018-04-26T09:43:06.845Z,54.03
2018-04-26T09:44:06.838Z,54.70
2018-04-26T09:45:06.830Z,54.79
2018-04-26T09:46:06.824Z,55.65
2018-04-26T09:47:06.816Z,54.70
2018-04-26T09:48:06.809Z,55.27
2018-04-26T09:49:06.804Z,54.03
2018-04-26T09:50:06.797Z,56.59
2018-04-26T09:51:06.790Z,55.91
2018-04-26T09:52:06.783Z,55.63
2018-04-26T09:53:06.778Z,55.24
2018-04-26T09:54:06.769Z,55.91
2018-04-26T09:55:06.764Z,58.22
2018-04-26T09:56:06.759Z,56.30
2018-04-26T09:57:06.751Z,56.10
2018-04-26T09:58:06.747Z,56.30
2018-04-26T09:59:06.737Z,55.73
2018-04-26T10:00:06.732Z,56.01
2018-04-26T10:01:06.725Z,55.91
2018-04-26T10:02:06.716Z,56.77
2018-04-26T10:03:06.708Z,56.68
2018-04-26T10:04:06.701Z,56.87
2018-04-26T10:05:06.694Z,59.14
2018-04-26T10:06:06.694Z,57.83
2018-04-26T10:07:06.679Z,59.27
2018-04-26T10:08:06.674Z,57.16
2018-04-26T10:09:06.666Z,56.68
2018-04-26T10:10:06.661Z,57.26
2018-04-26T10:11:06.650Z,57.16
2018-04-26T10:12:06.645Z,56.39
2018-04-26T10:13:06.638Z,57.54
2018-04-26T10:14:06.629Z,57.35
2018-04-26T10:15:06.657Z,56.49
2018-04-26T10:16:06.613Z,58.12
2018-04-26T10:17:06.607Z,60.25
2018-04-26T10:18:06.602Z,56.81
2018-04-26T10:19:06.592Z,55.63
2018-04-26T10:20:06.584Z,56.71
2018-04-26T10:21:06.632Z,58.15
2018-04-26T10:22:06.574Z,56.04
2018-04-26T10:23:06.564Z,56.30
2018-04-26T10:24:06.559Z,57.06
2018-04-26T10:25:06.550Z,56.10
2018-04-26T10:26:06.543Z,55.24
2018-04-26T10:27:06.538Z,57.90
2018-04-26T10:28:06.528Z,61.18
2018-04-26T10:29:06.523Z,58.50
2018-04-26T10:30:06.526Z,58.40
2018-04-26T10:31:06.507Z,57.45
2018-04-26T10:32:06.498Z,57.64
2018-04-26T10:33:06.494Z,56.49
2018-04-26T10:34:06.487Z,57.92
2018-04-26T10:35:06.479Z,57.64
2018-04-26T10:36:06.475Z,56.20
2018-04-26T10:37:06.465Z,58.22
2018-04-26T10:38:06.458Z,56.49
2018-04-26T10:39:06.449Z,56.77
2018-04-26T10:40:06.446Z,55.91
2018-04-26T10:41:06.435Z,54.67
2018-04-26T10:42:06.428Z,57.35
2018-04-26T10:43:06.420Z,56.01
2018-04-26T10:44:06.412Z,56.59
2018-04-26T10:45:06.407Z,55.53
2018-04-26T10:46:06.400Z,55.53
2018-04-26T10:47:06.395Z,57.64
2018-04-26T10:48:06.384Z,56.77
2018-04-26T10:49:06.376Z,55.82
2018-04-26T10:50:06.370Z,54.99
2018-04-26T10:51:06.364Z,54.50
2018-04-26T10:52:06.357Z,53.64
2018-04-26T10:53:06.395Z,53.36
2018-04-26T10:54:06.343Z,53.74
2018-04-26T10:55:06.335Z,53.00
2018-04-26T10:56:06.327Z,53.67
2018-04-26T10:57:06.321Z,52.04
2018-04-26T10:58:06.314Z,52.23
2018-04-26T10:59:06.308Z,50.70
2018-04-26T11:00:06.382Z,52.91
2018-04-26T11:01:06.296Z,52.04
2018-04-26T11:02:06.286Z,52.23
2018-04-26T11:03:06.281Z,52.16
2018-04-26T11:04:06.273Z,51.87
2018-04-26T11:05:06.267Z,50.43
2018-04-26T11:06:06.261Z,50.92
2018-04-26T11:07:06.253Z,49.76
2018-04-26T11:08:06.247Z,51.51
2018-04-26T11:09:06.264Z,53.34
2018-04-26T11:10:06.236Z,49.86
2018-04-26T11:11:06.231Z,51.40
2018-04-26T11:12:06.227Z,50.73
2018-04-26T11:13:06.216Z,51.10
2018-04-26T11:14:06.213Z,51.30
2018-04-26T11:15:06.211Z,52.57
2018-04-26T11:16:06.201Z,50.75
2018-04-26T11:17:06.218Z,49.50
2018-04-26T11:18:06.187Z,51.04
2018-04-26T11:19:06.184Z,50.94
2018-04-26T11:20:06.175Z,51.04
2018-04-26T11:21:06.171Z,50.37
2018-04-26T11:22:06.166Z,49.69
2018-04-26T11:23:06.159Z,49.21
2018-04-26T11:24:06.152Z,49.88
2018-04-26T11:25:06.145Z,49.69
2018-04-26T11:26:06.138Z,49.21
2018-04-26T11:27:06.134Z,50.34
2018-04-26T11:28:06.129Z,51.49
2018-04-26T11:29:06.121Z,52.74
2018-04-26T11:30:06.120Z,51.30
2018-04-26T11:31:06.199Z,50.73
2018-04-26T11:32:06.103Z,50.05
2018-04-26T11:33:06.101Z,52.07
2018-04-26T11:34:06.096Z,51.49
2018-04-26T11:35:06.087Z,51.30
2018-04-26T11:36:06.112Z,49.86
2018-04-26T11:37:06.077Z,49.98
2018-04-26T11:38:06.072Z,47.77
2018-04-26T11:39:06.064Z,48.44
2018-04-26T11:40:06.139Z,47.49
2018-04-26T11:41:06.052Z,47.97
2018-04-26T11:42:06.048Z,47.97
2018-04-26T11:43:06.040Z,46.94
2018-04-26T11:44:06.035Z,48.09
2018-04-26T11:45:06.027Z,45.98
2018-04-26T11:46:06.021Z,45.88
2018-04-26T11:47:06.016Z,46.00
2018-04-26T11:48:06.010Z,44.75
2018-04-26T11:49:06.011Z,42.85
2018-04-26T11:50:06.004Z,42.47
2018-04-26T11:51:05.996Z,43.23
2018-04-26T11:52:05.989Z,43.04
2018-04-26T11:53:05.984Z,42.25
2018-04-26T11:54:05.978Z,45.90
2018-04-26T11:55:05.976Z,46.77
2018-04-26T11:56:05.964Z,44.17
2018-04-26T11:57:05.960Z,43.79
2018-04-26T11:58:05.958Z,43.12
2018-04-26T11:59:05.949Z,42.43
2018-04-26T12:00:05.947Z,46.96
2018-04-26T12:01:05.946Z,44.08
2018-04-26T12:02:05.938Z,43.79
2018-04-26T12:03:05.932Z,43.02
2018-04-26T12:04:05.931Z,43.98
2018-04-26T12:05:05.924Z,45.71
2018-04-26T12:06:05.919Z,43.79
2018-04-26T12:07:05.913Z,43.02
2018-04-26T12:08:05.908Z,43.29
2018-04-26T12:09:05.905Z,45.50
2018-04-26T12:10:05.897Z,44.92
2018-04-26T12:11:05.897Z,45.68
2018-04-26T12:12:05.887Z,45.50
2018-04-26T12:13:05.898Z,46.43
2018-04-26T12:14:05.882Z,45.18
2018-04-26T12:15:05.875Z,46.12
2018-04-26T12:16:05.867Z,46.89
2018-04-26T12:17:05.861Z,46.89
2018-04-26T12:18:05.857Z,46.03
2018-04-26T12:19:05.855Z,47.85
2018-04-26T12:20:05.847Z,47.27
2018-04-26T12:21:05.839Z,45.16
2018-04-26T12:22:05.836Z,46.31
2018-04-26T12:23:05.832Z,46.89
2018-04-26T12:24:05.841Z,45.26
2018-04-26T12:25:05.819Z,45.83
2018-04-26T12:26:05.817Z,47.17
2018-04-26T12:27:05.807Z,45.93
2018-04-26T12:28:05.802Z,45.93
2018-04-26T12:29:05.798Z,45.93
2018-04-26T12:30:05.795Z,46.41
2018-04-26T12:31:05.790Z,46.03
2018-04-26T12:32:05.781Z,46.24
2018-04-26T12:33:05.776Z,45.93
2018-04-26T12:34:05.769Z,47.08
2018-04-26T12:35:05.802Z,45.95
2018-04-26T12:36:05.758Z,45.28
2018-04-26T12:37:05.752Z,44.59
2018-04-26T12:38:05.747Z,46.79
2018-04-26T12:39:05.743Z,48.43
2018-04-26T12:40:05.735Z,48.16
2018-04-26T12:41:05.729Z,46.70
2018-04-26T12:42:05.733Z,46.34
2018-04-26T12:43:05.719Z,45.67
2018-04-26T12:44:05.715Z,46.91
2018-04-26T12:45:05.707Z,48.38
2018-04-26T12:46:05.700Z,45.67
2018-04-26T12:47:05.698Z,44.70
2018-04-26T12:48:05.694Z,42.86
2018-04-26T12:49:05.688Z,47.58
2018-04-26T12:50:05.678Z,47.49
2018-04-26T12:51:05.674Z,45.95
2018-04-26T12:52:05.665Z,45.09